createdAt,value
2019-06-10T00:01:35.505Z,16.40
2019-06-10T00:04:08.425Z,16.30
2019-06-10T00:06:36.463Z,16.30
2019-06-10T00:09:08.177Z,16.30
2019-06-10T00:11:37.663Z,16.30
2019-06-10T00:14:07.470Z,16.30
2019-06-10T00:16:37.162Z,16.30
2019-06-10T00:19:09.389Z,16.20
2019-06-10T00:21:38.303Z,16.20
2019-06-10T00:24:08.593Z,16.30
2019-06-10T00:26:38.349Z,16.30
2019-06-10T00:29:09.037Z,16.30
2019-06-10T00:31:38.786Z,16.30
2019-06-10T00:34:09.317Z,16.20
2019-06-10T00:36:41.349Z,16.20
2019-06-10T00:39:13.458Z,16.20
2019-06-10T00:41:42.877Z,16.20
2019-06-10T00:44:12.854Z,16.30
2019-06-10T00:46:42.349Z,16.30
2019-06-10T00:49:14.592Z,16.30
2019-06-10T00:51:43.416Z,16.30
2019-06-10T00:54:15.419Z,16.40
2019-06-10T00:56:44.436Z,16.50
2019-06-10T00:59:15.328Z,16.50
2019-06-10T01:01:45.174Z,16.30
2019-06-10T01:04:16.377Z,16.30
2019-06-10T01:06:45.828Z,16.30
2019-06-10T01:09:15.195Z,16.30
2019-06-10T01:11:44.912Z,16.30
2019-06-10T01:14:15.589Z,16.40
2019-06-10T01:16:44.989Z,16.40
2019-06-10T01:19:15.831Z,16.40
2019-06-10T01:21:45.468Z,16.50
2019-06-10T01:24:14.895Z,16.40
2019-06-10T01:26:44.325Z,16.30
2019-06-10T01:29:15.472Z,16.30
2019-06-10T01:31:45.010Z,16.30
2019-06-10T01:34:15.179Z,16.30
2019-06-10T01:36:44.657Z,16.30
2019-06-10T01:39:15.182Z,16.30
2019-06-10T01:41:45.062Z,16.20
2019-06-10T01:44:16.076Z,16.20
2019-06-10T01:46:45.796Z,16.20
2019-06-10T01:49:16.757Z,16.10
2019-06-10T01:51:46.533Z,16.10
2019-06-10T01:54:17.117Z,16.10
2019-06-10T01:56:47.407Z,16.10
2019-06-10T01:59:16.992Z,16.20
2019-06-10T02:02:00.778Z,16.20
2019-06-10T02:04:31.762Z,16.20
2019-06-10T02:07:01.302Z,16.20
2019-06-10T02:09:31.507Z,16.20
2019-06-10T02:12:02.177Z,16.10
2019-06-10T02:14:32.011Z,16.10
2019-06-10T02:17:01.762Z,16.10
2019-06-10T02:19:31.422Z,16.00
2019-06-10T02:22:01.258Z,16.00
2019-06-10T02:24:31.694Z,15.90
2019-06-10T02:27:01.517Z,15.90
2019-06-10T02:29:31.014Z,16.00
2019-06-10T02:32:04.450Z,16.00
2019-06-10T02:34:36.553Z,16.00
2019-06-10T02:37:04.807Z,16.00
2019-06-10T02:39:38.712Z,16.00
2019-06-10T02:42:14.814Z,15.90
2019-06-10T02:44:44.592Z,15.90
2019-06-10T02:47:16.055Z,15.80
2019-06-10T02:49:56.885Z,15.90
2019-06-10T02:52:20.081Z,15.80
2019-06-10T02:54:49.068Z,15.80
2019-06-10T02:57:25.739Z,15.70
2019-06-10T02:59:53.537Z,15.70
2019-06-10T03:02:23.723Z,15.70
2019-06-10T03:04:53.540Z,15.60
2019-06-10T03:07:26.750Z,15.70
2019-06-10T03:09:54.219Z,15.70
2019-06-10T03:12:25.762Z,15.70
2019-06-10T03:14:55.108Z,15.70
2019-06-10T03:17:26.285Z,15.80
2019-06-10T03:19:56.056Z,15.80
2019-06-10T03:22:25.947Z,15.80
2019-06-10T03:24:55.743Z,15.70
2019-06-10T03:27:26.596Z,15.70
2019-06-10T03:29:56.708Z,15.80
2019-06-10T03:32:33.184Z,15.80
2019-06-10T03:34:57.116Z,15.80
2019-06-10T03:37:27.711Z,15.80
2019-06-10T03:39:57.071Z,15.80
2019-06-10T03:42:28.065Z,15.80
2019-06-10T03:44:57.680Z,15.80
2019-06-10T03:47:28.496Z,15.70
2019-06-10T03:49:58.523Z,15.70
2019-06-10T03:52:28.590Z,15.60
2019-06-10T03:54:58.089Z,15.60
2019-06-10T03:57:28.673Z,15.50
2019-06-10T03:59:58.405Z,15.60
2019-06-10T04:02:28.526Z,15.60
2019-06-10T04:04:58.320Z,15.70
2019-06-10T04:07:30.943Z,15.70
2019-06-10T04:09:59.084Z,15.60
2019-06-10T04:12:29.194Z,15.50
2019-06-10T04:14:58.653Z,15.50
2019-06-10T04:17:28.784Z,15.40
2019-06-10T04:20:09.375Z,15.40
2019-06-10T04:22:29.666Z,15.40
2019-06-10T04:24:59.038Z,15.50
2019-06-10T04:27:28.555Z,15.60
2019-06-10T04:29:57.947Z,15.70
2019-06-10T04:32:27.844Z,15.70
2019-06-10T04:34:58.398Z,15.90
2019-06-10T04:37:28.155Z,15.80
2019-06-10T04:39:58.848Z,15.90
2019-06-10T04:42:28.967Z,15.90
2019-06-10T04:44:58.496Z,16.00
2019-06-10T04:47:29.272Z,16.00
2019-06-10T04:49:59.045Z,16.10
2019-06-10T04:52:29.787Z,16.10
2019-06-10T04:55:02.292Z,16.10
2019-06-10T04:57:32.820Z,16.10
2019-06-10T05:00:07.008Z,16.10
2019-06-10T05:02:33.345Z,16.10
2019-06-10T05:05:03.109Z,16.00
2019-06-10T05:07:36.809Z,16.00
2019-06-10T05:10:04.728Z,16.00
2019-06-10T05:12:34.088Z,16.00
2019-06-10T05:15:03.717Z,16.00
2019-06-10T05:17:34.369Z,16.00
2019-06-10T05:20:04.068Z,15.90
2019-06-10T05:22:33.531Z,16.00
2019-06-10T05:25:02.982Z,16.10
2019-06-10T05:27:33.055Z,16.00
2019-06-10T05:30:02.600Z,16.10
2019-06-10T05:32:33.357Z,16.10
2019-06-10T05:35:03.548Z,16.10
2019-06-10T05:37:33.862Z,16.10
2019-06-10T05:40:03.911Z,16.00
2019-06-10T05:42:35.578Z,16.00
2019-06-10T05:45:05.959Z,16.10
2019-06-10T05:47:36.057Z,16.10
2019-06-10T05:50:06.735Z,16.10
2019-06-10T05:52:36.086Z,16.10
2019-06-10T05:55:06.061Z,16.00
2019-06-10T05:57:35.729Z,16.10
2019-06-10T06:00:11.271Z,16.10
2019-06-10T06:02:38.748Z,16.20
2019-06-10T06:05:08.448Z,16.10
2019-06-10T06:07:37.820Z,16.10
2019-06-10T06:10:07.723Z,16.10
2019-06-10T06:12:37.868Z,16.10
2019-06-10T06:15:07.507Z,16.10
2019-06-10T06:17:36.966Z,16.10
2019-06-10T06:20:07.257Z,16.10
2019-06-10T06:22:37.764Z,15.90
2019-06-10T06:25:07.778Z,15.90
2019-06-10T06:27:38.225Z,15.90
2019-06-10T06:30:14.728Z,15.80
2019-06-10T06:32:40.456Z,15.80
2019-06-10T06:35:12.500Z,16.00
2019-06-10T06:37:42.823Z,16.00
2019-06-10T06:40:13.365Z,16.20
2019-06-10T06:42:43.419Z,16.40
2019-06-10T06:45:13.013Z,16.50
2019-06-10T06:47:43.682Z,16.40
2019-06-10T06:50:15.052Z,16.40
2019-06-10T06:53:15.710Z,16.40
2019-06-10T06:55:15.880Z,16.40
2019-06-10T06:57:45.614Z,16.40
2019-06-10T07:00:38.705Z,16.60
2019-06-10T07:02:46.823Z,16.80
2019-06-10T07:05:16.202Z,16.90
2019-06-10T07:07:45.891Z,16.80
2019-06-10T07:10:15.482Z,17.00
2019-06-10T07:12:45.567Z,17.10
2019-06-10T07:15:15.003Z,17.20
2019-06-10T07:17:45.596Z,17.30
2019-06-10T07:20:15.479Z,17.70
2019-06-10T07:22:46.593Z,17.70
2019-06-10T07:25:16.477Z,17.80
2019-06-10T07:27:46.965Z,17.90
2019-06-10T07:30:16.566Z,17.90
2019-06-10T07:32:47.445Z,17.90
2019-06-10T07:35:17.391Z,18.00
2019-06-10T07:37:47.272Z,18.30
2019-06-10T07:40:17.724Z,18.70
2019-06-10T07:42:47.219Z,18.80
2019-06-10T07:45:17.840Z,19.10
2019-06-10T07:47:47.915Z,19.20
2019-06-10T07:50:17.695Z,19.70
2019-06-10T07:52:47.072Z,19.90
2019-06-10T07:55:16.994Z,20.00
2019-06-10T07:57:46.686Z,20.20
2019-06-10T08:00:16.891Z,20.10
2019-06-10T08:02:46.687Z,20.10
2019-06-10T08:05:16.668Z,20.00
2019-06-10T08:07:48.837Z,19.40
2019-06-10T08:10:18.703Z,19.50
2019-06-10T08:12:48.482Z,19.20
2019-06-10T08:15:18.236Z,19.50
2019-06-10T08:17:48.232Z,19.60
2019-06-10T08:20:39.087Z,19.70
2019-06-10T08:23:08.877Z,19.70
2019-06-10T08:25:40.399Z,19.70
2019-06-10T08:28:09.940Z,19.90
2019-06-10T08:30:39.793Z,20.00
2019-06-10T08:33:13.547Z,19.70
2019-06-10T08:35:48.569Z,19.80
2019-06-10T08:38:13.321Z,19.60
2019-06-10T08:40:45.312Z,20.10
2019-06-10T08:43:14.430Z,20.10
2019-06-10T08:45:45.825Z,20.10
2019-06-10T08:48:14.915Z,19.90
2019-06-10T08:50:46.536Z,19.80
2019-06-10T08:53:18.094Z,20.00
2019-06-10T08:55:49.308Z,20.20
2019-06-10T08:58:18.268Z,19.90
2019-06-10T09:00:49.469Z,19.90
2019-06-10T09:03:19.521Z,19.60
2019-06-10T09:05:51.023Z,19.80
2019-06-10T09:08:23.520Z,19.40
2019-06-10T09:10:55.089Z,19.60
2019-06-10T09:13:24.375Z,19.40
2019-06-10T09:16:10.480Z,19.40
2019-06-10T09:18:25.648Z,19.40
2019-06-10T09:20:56.160Z,19.40
2019-06-10T09:23:26.278Z,19.50
2019-06-10T09:25:57.428Z,19.20
2019-06-10T09:28:27.664Z,19.20
2019-06-10T09:30:59.099Z,19.30
2019-06-10T09:33:29.097Z,19.20
2019-06-10T09:35:59.100Z,19.10
2019-06-10T09:38:29.006Z,19.10
2019-06-10T09:41:01.857Z,19.30
2019-06-10T09:43:32.994Z,19.60
2019-06-10T09:46:03.510Z,20.00
2019-06-10T09:48:33.804Z,20.20
2019-06-10T09:51:03.542Z,20.40
2019-06-10T09:53:42.384Z,20.30
2019-06-10T09:56:04.662Z,20.50
2019-06-10T09:58:34.017Z,19.90
2019-06-10T10:01:03.752Z,20.20
2019-06-10T10:03:33.356Z,20.30
2019-06-10T10:06:11.509Z,20.30
2019-06-10T10:08:34.892Z,20.20
2019-06-10T10:11:04.294Z,20.50
2019-06-10T10:13:35.540Z,20.60
2019-06-10T10:16:05.597Z,21.00
2019-06-10T10:18:35.585Z,21.00
2019-06-10T10:21:05.047Z,21.60
2019-06-10T10:23:50.366Z,22.10
2019-06-10T10:26:05.564Z,22.20
2019-06-10T10:28:35.214Z,22.30
2019-06-10T10:31:05.090Z,22.80
2019-06-10T10:33:34.580Z,23.00
2019-06-10T10:36:03.933Z,23.30
2019-06-10T10:38:34.836Z,23.40
2019-06-10T10:41:04.884Z,23.20
2019-06-10T10:43:37.591Z,23.00
2019-06-10T10:46:05.972Z,22.80
2019-06-10T10:48:35.817Z,22.30
2019-06-10T10:51:05.517Z,22.80
2019-06-10T10:53:35.301Z,22.90
2019-06-10T10:56:04.756Z,23.10
2019-06-10T10:58:34.148Z,22.40
2019-06-10T11:01:04.901Z,22.40
2019-06-10T11:03:34.520Z,21.70
2019-06-10T11:06:03.904Z,22.00
2019-06-10T11:08:33.961Z,22.20
2019-06-10T11:11:05.071Z,22.20
2019-06-10T11:13:36.642Z,22.60
2019-06-10T11:16:06.053Z,22.10
2019-06-10T11:18:35.990Z,21.50
2019-06-10T11:21:05.466Z,22.10
2019-06-10T11:23:34.854Z,22.70
2019-06-10T11:26:04.192Z,22.20
2019-06-10T11:28:33.939Z,22.70
2019-06-10T11:31:03.963Z,22.60
2019-06-10T11:33:33.784Z,22.60
2019-06-10T11:36:03.292Z,22.50
2019-06-10T11:38:33.144Z,22.50
2019-06-10T11:41:02.989Z,22.20
2019-06-10T11:43:33.246Z,21.70
2019-06-10T11:46:07.093Z,21.20
2019-06-10T11:48:34.282Z,20.70
2019-06-10T11:51:06.597Z,20.50
2019-06-10T11:53:36.020Z,20.30
2019-06-10T11:56:06.091Z,20.20
2019-06-10T11:58:35.475Z,20.30
2019-06-10T12:01:05.774Z,20.40
2019-06-10T12:03:35.303Z,20.50
2019-06-10T12:06:05.753Z,20.60
2019-06-10T12:08:35.778Z,20.70
2019-06-10T12:11:05.362Z,20.90
2019-06-10T12:13:35.054Z,20.90
2019-06-10T12:16:51.555Z,20.80
2019-06-10T12:18:36.013Z,20.70
2019-06-10T12:21:05.419Z,20.80
2019-06-10T12:23:34.835Z,20.70
2019-06-10T12:26:05.152Z,20.60
2019-06-10T12:28:35.392Z,20.70
2019-06-10T12:31:07.007Z,20.70
2019-06-10T12:33:35.853Z,20.70
2019-06-10T12:36:07.124Z,20.60
2019-06-10T12:38:37.060Z,20.90
2019-06-10T12:41:09.557Z,21.40
2019-06-10T12:43:37.573Z,21.80
2019-06-10T12:46:07.070Z,22.00
2019-06-10T12:48:36.482Z,22.00
2019-06-10T12:51:09.362Z,21.90
2019-06-10T12:53:36.871Z,21.80
2019-06-10T12:56:10.577Z,21.70
2019-06-10T12:58:37.358Z,21.60
2019-06-10T13:01:08.025Z,21.50
2019-06-10T13:03:37.598Z,21.30
2019-06-10T13:06:09.486Z,21.10
2019-06-10T13:08:39.332Z,21.00
2019-06-10T13:11:08.783Z,21.00
2019-06-10T13:13:38.475Z,20.80
2019-06-10T13:16:09.179Z,20.90
2019-06-10T13:18:38.896Z,20.80
2019-06-10T13:21:13.313Z,20.50
2019-06-10T13:23:39.696Z,20.10
2019-06-10T13:26:15.064Z,19.90
2019-06-10T13:28:43.118Z,19.70
2019-06-10T13:31:12.156Z,19.60
2019-06-10T13:33:42.930Z,19.60
2019-06-10T13:36:12.824Z,19.50
2019-06-10T13:38:42.877Z,19.30
2019-06-10T13:41:12.486Z,19.10
2019-06-10T13:43:43.514Z,18.90
2019-06-10T13:46:13.309Z,18.80
2019-06-10T13:48:43.308Z,18.60
2019-06-10T13:51:15.548Z,18.50
2019-06-10T13:53:46.329Z,18.40
2019-06-10T13:56:37.823Z,18.40
2019-06-10T13:58:46.482Z,18.40
2019-06-10T14:01:21.739Z,18.20
2019-06-10T14:03:47.489Z,18.10
2019-06-10T14:06:33.297Z,18.10
2019-06-10T14:08:47.941Z,18.20
2019-06-10T14:11:18.663Z,18.20
2019-06-10T14:13:48.619Z,18.00
2019-06-10T14:16:18.300Z,17.90
2019-06-10T14:18:48.028Z,17.80
2019-06-10T14:21:18.726Z,17.80
2019-06-10T14:23:48.214Z,17.80
2019-06-10T14:26:25.562Z,17.70
2019-06-10T14:28:48.909Z,17.70
2019-06-10T14:31:38.223Z,17.70
2019-06-10T14:33:50.075Z,17.90
2019-06-10T14:36:22.027Z,17.90
2019-06-10T14:38:50.503Z,17.80
2019-06-10T14:41:25.676Z,17.80
2019-06-10T14:43:53.128Z,17.80
2019-06-10T14:46:23.047Z,17.90
2019-06-10T14:48:53.264Z,17.90
2019-06-10T14:51:23.057Z,17.90
2019-06-10T14:53:52.568Z,17.90
2019-06-10T14:56:23.436Z,18.00
2019-06-10T14:58:53.149Z,18.00
2019-06-10T15:01:25.246Z,17.80
2019-06-10T15:03:54.094Z,17.80
2019-06-10T15:06:23.791Z,17.80
2019-06-10T15:08:53.416Z,17.80
2019-06-10T15:11:25.417Z,17.70
2019-06-10T15:13:54.276Z,17.80
2019-06-10T15:16:23.924Z,17.70
2019-06-10T15:18:54.102Z,17.60
2019-06-10T15:21:23.625Z,17.60
2019-06-10T15:23:53.302Z,17.70
2019-06-10T15:26:23.016Z,17.80
2019-06-10T15:28:52.708Z,17.80
2019-06-10T15:31:22.073Z,17.90
2019-06-10T15:33:52.510Z,17.90
2019-06-10T15:36:22.128Z,17.80
2019-06-10T15:38:52.543Z,17.70
2019-06-10T15:41:24.716Z,17.70
2019-06-10T15:43:53.447Z,17.70
2019-06-10T15:46:22.831Z,17.70
2019-06-10T15:48:54.198Z,17.70
2019-06-10T15:51:25.950Z,17.70
2019-06-10T15:53:54.355Z,17.80
2019-06-10T15:56:37.358Z,17.80
2019-06-10T15:58:54.776Z,17.80
2019-06-10T16:01:26.862Z,17.80
2019-06-10T16:03:55.493Z,17.80
2019-06-10T16:06:24.847Z,17.90
2019-06-10T16:08:54.632Z,17.90
2019-06-10T16:11:26.856Z,17.90
2019-06-10T16:13:55.595Z,17.90
2019-06-10T16:16:24.943Z,17.90
2019-06-10T16:18:54.319Z,17.80
2019-06-10T16:21:23.956Z,17.80
2019-06-10T16:23:53.648Z,17.80
2019-06-10T16:26:26.508Z,17.80
2019-06-10T16:28:54.014Z,17.80
2019-06-10T16:31:27.052Z,17.80
2019-06-10T16:33:54.388Z,17.70
2019-06-10T16:36:26.295Z,17.70
2019-06-10T16:38:54.781Z,17.80
2019-06-10T16:41:26.495Z,17.90
2019-06-10T16:43:55.931Z,17.90
2019-06-10T16:46:25.325Z,17.80
2019-06-10T16:48:54.691Z,17.80
2019-06-10T16:51:24.053Z,17.80
2019-06-10T16:53:53.715Z,17.80
2019-06-10T16:56:25.717Z,17.80
2019-06-10T16:58:54.136Z,17.80
2019-06-10T17:01:26.470Z,17.80
2019-06-10T17:03:54.800Z,17.80
2019-06-10T17:06:25.553Z,17.80
2019-06-10T17:08:55.177Z,17.90
2019-06-10T17:11:27.556Z,17.90
2019-06-10T17:13:55.593Z,17.90
2019-06-10T17:16:27.303Z,17.90
2019-06-10T17:18:56.571Z,17.90
2019-06-10T17:21:30.373Z,17.80
2019-06-10T17:23:57.708Z,17.80
2019-06-10T17:26:30.585Z,17.80
2019-06-10T17:28:58.130Z,17.80
2019-06-10T17:31:30.427Z,17.90
2019-06-10T17:33:58.750Z,17.90
2019-06-10T17:36:30.830Z,17.80
2019-06-10T17:38:59.174Z,17.70
2019-06-10T17:41:30.283Z,17.80
2019-06-10T17:44:02.505Z,17.70
2019-06-10T17:46:32.677Z,17.70
2019-06-10T17:49:02.607Z,17.70
2019-06-10T17:51:35.547Z,17.70
2019-06-10T17:54:03.995Z,17.70
2019-06-10T17:56:35.978Z,17.70
2019-06-10T17:59:04.388Z,17.70
2019-06-10T18:01:35.258Z,17.60
2019-06-10T18:04:04.814Z,17.50
2019-06-10T18:06:36.257Z,17.50
2019-06-10T18:09:08.227Z,17.50
2019-06-10T18:11:37.717Z,17.50
2019-06-10T18:14:07.072Z,17.50
2019-06-10T18:16:36.782Z,17.50
2019-06-10T18:19:06.241Z,17.40
2019-06-10T18:21:36.437Z,17.40
2019-06-10T18:24:08.377Z,17.40
2019-06-10T18:26:37.923Z,17.40
2019-06-10T18:29:09.343Z,17.30
2019-06-10T18:31:39.687Z,17.30
2019-06-10T18:34:09.402Z,17.30
2019-06-10T18:36:39.353Z,17.20
2019-06-10T18:39:08.855Z,17.20
2019-06-10T18:41:39.701Z,17.10
2019-06-10T18:44:19.745Z,17.10
2019-06-10T18:46:43.052Z,17.10
2019-06-10T18:49:13.339Z,17.10
2019-06-10T18:51:43.382Z,17.10
2019-06-10T18:54:13.662Z,17.10
2019-06-10T18:56:45.695Z,17.10
2019-06-10T18:59:20.869Z,17.10
2019-06-10T19:01:47.061Z,17.10
2019-06-10T19:04:17.143Z,17.10
2019-06-10T19:06:46.518Z,17.10
2019-06-10T19:09:16.038Z,17.10
2019-06-10T19:11:45.424Z,17.10
2019-06-10T19:14:15.091Z,17.10
2019-06-10T19:16:44.476Z,16.90
2019-06-10T19:19:14.410Z,16.90
2019-06-10T19:21:44.420Z,16.80
2019-06-10T19:24:13.980Z,16.80
2019-06-10T19:26:45.095Z,16.80
2019-06-10T19:29:29.649Z,16.70
2019-06-10T19:31:46.285Z,16.70
2019-06-10T19:34:15.762Z,16.60
2019-06-10T19:36:45.788Z,16.60
2019-06-10T19:39:15.211Z,16.70
2019-06-10T19:41:47.154Z,16.70
2019-06-10T19:44:16.235Z,16.70
2019-06-10T19:46:45.620Z,16.70
2019-06-10T19:49:15.361Z,16.70
2019-06-10T19:51:46.819Z,16.70
2019-06-10T19:54:16.621Z,16.70
2019-06-10T19:56:46.015Z,16.70
2019-06-10T19:59:15.721Z,16.70
2019-06-10T20:01:48.655Z,16.70
2019-06-10T20:04:18.112Z,16.70
2019-06-10T20:06:50.576Z,16.70
2019-06-10T20:09:18.959Z,16.70
2019-06-10T20:11:48.404Z,16.70
2019-06-10T20:14:18.061Z,16.60
2019-06-10T20:16:48.109Z,16.60
2019-06-10T20:19:17.517Z,16.60
2019-06-10T20:21:48.816Z,16.60
2019-06-10T20:24:18.517Z,16.60
2019-06-10T20:26:48.375Z,16.60
2019-06-10T20:29:17.751Z,16.50
2019-06-10T20:31:48.772Z,16.40
2019-06-10T20:34:19.643Z,16.50
2019-06-10T20:36:49.837Z,16.50
2019-06-10T20:39:19.531Z,16.40
2019-06-10T20:41:52.315Z,16.40
2019-06-10T20:44:22.184Z,16.40
2019-06-10T20:46:52.931Z,16.40
2019-06-10T20:49:22.660Z,16.40
2019-06-10T20:52:06.676Z,16.30
2019-06-10T20:54:23.349Z,16.30
2019-06-10T20:56:53.457Z,16.30
2019-06-10T20:59:25.973Z,16.30
2019-06-10T21:01:54.503Z,16.30
2019-06-10T21:04:24.018Z,16.30
2019-06-10T21:06:56.009Z,16.30
2019-06-10T21:09:27.263Z,16.30
2019-06-10T21:11:56.988Z,16.30
2019-06-10T21:14:26.892Z,16.20
2019-06-10T21:16:56.703Z,16.20
2019-06-10T21:19:26.144Z,16.20
2019-06-10T21:21:55.518Z,16.20
2019-06-10T21:24:25.358Z,16.20
2019-06-10T21:26:55.157Z,16.10
2019-06-10T21:29:24.703Z,16.20
2019-06-10T21:31:54.896Z,16.20
2019-06-10T21:34:24.505Z,16.10
2019-06-10T21:36:54.481Z,16.10
2019-06-10T21:39:24.707Z,16.10
2019-06-10T21:41:54.767Z,16.10
2019-06-10T21:44:24.217Z,16.00
2019-06-10T21:46:53.848Z,16.10
2019-06-10T21:49:23.829Z,16.00
2019-06-10T21:51:56.505Z,16.00
2019-06-10T21:54:24.980Z,16.00
2019-06-10T21:56:55.521Z,16.00
2019-06-10T21:59:25.047Z,16.00
2019-06-10T22:01:54.999Z,16.00
2019-06-10T22:04:24.718Z,16.00
2019-06-10T22:06:56.201Z,15.90
2019-06-10T22:09:25.885Z,15.90
2019-06-10T22:11:55.867Z,15.80
2019-06-10T22:14:25.802Z,15.80
2019-06-10T22:16:56.543Z,15.80
2019-06-10T22:19:26.735Z,15.80
2019-06-10T22:21:56.764Z,15.70
2019-06-10T22:24:26.293Z,15.70
2019-06-10T22:26:55.733Z,15.70
2019-06-10T22:29:25.596Z,15.70
2019-06-10T22:31:55.728Z,15.70
2019-06-10T22:34:26.063Z,15.60
2019-06-10T22:36:57.421Z,15.60
2019-06-10T22:39:26.531Z,15.60
2019-06-10T22:41:57.023Z,15.60
2019-06-10T22:44:26.619Z,15.60
2019-06-10T22:46:57.238Z,15.60
2019-06-10T22:49:26.944Z,15.60
2019-06-10T22:51:58.480Z,15.60
2019-06-10T22:54:28.054Z,15.50
2019-06-10T22:56:58.436Z,15.50
2019-06-10T22:59:28.030Z,15.50
2019-06-10T23:01:58.670Z,15.50
2019-06-10T23:04:29.496Z,15.40
2019-06-10T23:06:59.930Z,15.50
2019-06-10T23:09:30.314Z,15.60
2019-06-10T23:11:59.696Z,15.70
2019-06-10T23:14:29.102Z,15.70
2019-06-10T23:17:00.045Z,15.60
2019-06-10T23:19:30.158Z,15.60
2019-06-10T23:22:00.593Z,15.60
2019-06-10T23:24:32.360Z,15.50
2019-06-10T23:27:03.123Z,15.50
2019-06-10T23:29:33.496Z,15.50
2019-06-10T23:32:06.897Z,15.60
2019-06-10T23:34:34.223Z,15.50
2019-06-10T23:37:04.879Z,15.50
2019-06-10T23:39:34.277Z,15.40
2019-06-10T23:42:04.201Z,15.40
2019-06-10T23:44:34.174Z,15.40
2019-06-10T23:47:04.228Z,15.30
2019-06-10T23:49:34.029Z,15.20
2019-06-10T23:52:05.368Z,15.20
2019-06-10T23:54:34.576Z,15.30
2019-06-10T23:57:05.998Z,15.20
2019-06-10T23:59:35.507Z,15.20
